createdAt,value
2019-03-09T00:01:15.131Z,5.30
2019-03-09T00:03:43.552Z,5.42
2019-03-09T00:06:13.561Z,5.40
2019-03-09T00:08:42.209Z,5.37
2019-03-09T00:11:10.614Z,5.38
2019-03-09T00:13:40.996Z,5.31
2019-03-09T00:16:09.511Z,5.23
2019-03-09T00:18:38.044Z,5.30
2019-03-09T00:21:06.790Z,5.35
2019-03-09T00:23:42.794Z,5.36
2019-03-09T00:26:15.551Z,5.32
2019-03-09T00:28:51.387Z,5.28
2019-03-09T00:31:21.672Z,5.31
2019-03-09T00:33:50.108Z,5.32
2019-03-09T00:36:18.626Z,5.35
2019-03-09T00:38:47.059Z,5.27
2019-03-09T00:41:15.483Z,5.32
2019-03-09T00:43:44.375Z,5.31
2019-03-09T00:46:13.134Z,5.39
2019-03-09T00:48:41.558Z,5.37
2019-03-09T00:51:10.022Z,5.35
2019-03-09T00:53:38.483Z,5.36
2019-03-09T00:56:06.937Z,5.37
2019-03-09T00:58:35.362Z,5.43
2019-03-09T01:01:03.920Z,5.36
2019-03-09T01:03:32.526Z,5.44
2019-03-09T01:06:01.108Z,5.41
2019-03-09T01:08:29.593Z,5.40
2019-03-09T01:10:58.117Z,5.44
2019-03-09T01:13:26.627Z,5.36
2019-03-09T01:15:55.062Z,5.44
2019-03-09T01:18:23.508Z,5.50
2019-03-09T01:20:52.026Z,5.51
2019-03-09T01:23:20.484Z,5.48
2019-03-09T01:25:48.931Z,5.44
2019-03-09T01:28:17.433Z,5.47
2019-03-09T01:30:45.924Z,5.48
2019-03-09T01:33:14.411Z,5.37
2019-03-09T01:35:42.814Z,5.35
2019-03-09T01:38:11.228Z,5.31
2019-03-09T01:40:39.794Z,5.28
2019-03-09T01:43:08.226Z,5.33
2019-03-09T01:45:36.829Z,5.33
2019-03-09T01:48:05.455Z,5.34
2019-03-09T01:50:34.012Z,5.33
2019-03-09T01:53:02.508Z,5.30
2019-03-09T01:55:31.004Z,5.33
2019-03-09T01:57:59.473Z,5.32
2019-03-09T02:00:27.979Z,5.30
2019-03-09T02:02:56.460Z,5.34
2019-03-09T02:05:25.055Z,5.39
2019-03-09T02:07:53.595Z,5.50
2019-03-09T02:10:22.137Z,5.50
2019-03-09T02:12:50.708Z,5.54
2019-03-09T02:15:19.304Z,5.47
2019-03-09T02:17:47.826Z,5.49
2019-03-09T02:20:17.193Z,5.60
2019-03-09T02:22:45.758Z,5.67
2019-03-09T02:25:15.205Z,5.66
2019-03-09T02:27:43.649Z,5.70
2019-03-09T02:30:18.888Z,5.71
2019-03-09T02:32:47.417Z,5.78
2019-03-09T02:35:19.220Z,5.82
2019-03-09T02:37:47.709Z,5.76
2019-03-09T02:40:22.935Z,5.76
2019-03-09T02:42:50.767Z,5.79
2019-03-09T02:45:24.510Z,5.85
2019-03-09T02:47:53.077Z,6.04
2019-03-09T02:50:21.630Z,6.00
2019-03-09T02:52:50.158Z,6.07
2019-03-09T02:55:18.559Z,6.16
2019-03-09T02:57:47.116Z,6.12
2019-03-09T03:00:19.588Z,6.17
2019-03-09T03:02:58.510Z,6.10
2019-03-09T03:05:26.965Z,6.19
2019-03-09T03:07:55.430Z,6.25
2019-03-09T03:10:23.905Z,6.19
2019-03-09T03:12:52.356Z,6.21
2019-03-09T03:15:37.828Z,6.25
2019-03-09T03:18:06.315Z,6.26
2019-03-09T03:20:34.829Z,6.17
2019-03-09T03:23:03.479Z,6.20
2019-03-09T03:25:32.012Z,6.12
2019-03-09T03:28:00.441Z,6.10
2019-03-09T03:30:28.891Z,6.17
2019-03-09T03:32:58.593Z,6.15
2019-03-09T03:35:27.096Z,6.31
2019-03-09T03:37:55.617Z,6.24
2019-03-09T03:40:24.109Z,6.19
2019-03-09T03:42:52.618Z,6.27
2019-03-09T03:45:21.468Z,6.25
2019-03-09T03:47:49.897Z,6.27
2019-03-09T03:50:18.314Z,6.24
2019-03-09T03:52:47.002Z,6.26
2019-03-09T03:55:15.480Z,6.28
2019-03-09T03:57:43.885Z,6.23
2019-03-09T04:00:14.425Z,6.16
2019-03-09T04:02:42.972Z,6.09
2019-03-09T04:05:11.522Z,6.07
2019-03-09T04:07:41.108Z,6.15
2019-03-09T04:10:11.566Z,6.12
2019-03-09T04:12:40.153Z,6.07
2019-03-09T04:15:09.077Z,6.07
2019-03-09T04:17:37.668Z,6.09
2019-03-09T04:20:07.721Z,6.25
2019-03-09T04:22:36.274Z,6.19
2019-03-09T04:25:06.075Z,6.17
2019-03-09T04:27:34.797Z,6.07
2019-03-09T04:30:04.477Z,6.23
2019-03-09T04:32:33.488Z,6.21
2019-03-09T04:35:02.094Z,6.16
2019-03-09T04:37:30.602Z,6.12
2019-03-09T04:39:59.056Z,6.16
2019-03-09T04:42:27.507Z,6.12
2019-03-09T04:44:55.923Z,6.19
2019-03-09T04:47:24.387Z,6.13
2019-03-09T04:49:53.127Z,6.13
2019-03-09T04:52:21.576Z,6.09
2019-03-09T04:54:49.966Z,6.13
2019-03-09T04:57:18.408Z,6.13
2019-03-09T04:59:46.882Z,6.08
2019-03-09T05:02:15.585Z,6.09
2019-03-09T05:04:45.826Z,6.06
2019-03-09T05:07:17.390Z,6.06
2019-03-09T05:09:51.544Z,6.05
2019-03-09T05:12:19.977Z,6.07
2019-03-09T05:14:48.420Z,5.96
2019-03-09T05:17:16.908Z,5.97
2019-03-09T05:19:45.320Z,6.11
2019-03-09T05:22:13.760Z,6.09
2019-03-09T05:24:42.178Z,6.06
2019-03-09T05:27:10.812Z,6.03
2019-03-09T05:29:39.240Z,6.08
2019-03-09T05:32:07.656Z,6.02
2019-03-09T05:34:36.095Z,5.87
2019-03-09T05:37:04.543Z,5.91
2019-03-09T05:39:32.955Z,5.96
2019-03-09T05:42:01.391Z,5.85
2019-03-09T05:44:29.881Z,5.82
2019-03-09T05:46:58.468Z,5.90
2019-03-09T05:49:26.990Z,5.87
2019-03-09T05:52:21.415Z,5.89
2019-03-09T05:54:50.054Z,5.80
2019-03-09T05:57:18.477Z,5.74
2019-03-09T05:59:47.059Z,5.74
2019-03-09T06:02:15.605Z,5.64
2019-03-09T06:04:44.023Z,5.62
2019-03-09T06:07:12.465Z,5.54
2019-03-09T06:09:40.892Z,5.56
2019-03-09T06:12:09.405Z,5.54
2019-03-09T06:14:37.863Z,5.50
2019-03-09T06:17:06.587Z,5.52
2019-03-09T06:19:35.005Z,5.53
2019-03-09T06:22:03.431Z,5.46
2019-03-09T06:24:31.931Z,5.57
2019-03-09T06:27:00.364Z,5.59
2019-03-09T06:29:28.828Z,5.49
2019-03-09T06:32:28.978Z,5.38
2019-03-09T06:34:57.439Z,5.36
2019-03-09T06:37:25.861Z,5.51
2019-03-09T06:39:56.839Z,5.51
2019-03-09T06:42:37.743Z,5.49
2019-03-09T06:45:09.124Z,5.54
2019-03-09T06:47:37.609Z,5.39
2019-03-09T06:50:12.096Z,5.54
2019-03-09T06:52:40.512Z,5.53
2019-03-09T06:55:11.519Z,5.54
2019-03-09T06:57:40.017Z,5.49
2019-03-09T07:00:30.836Z,5.56
2019-03-09T07:02:59.325Z,5.52
2019-03-09T07:05:27.739Z,5.38
2019-03-09T07:07:56.260Z,5.50
2019-03-09T07:10:24.814Z,5.42
2019-03-09T07:12:53.246Z,5.47
2019-03-09T07:15:27.128Z,5.52
2019-03-09T07:17:57.899Z,5.54
2019-03-09T07:20:26.381Z,5.52
2019-03-09T07:22:54.974Z,5.55
2019-03-09T07:25:23.485Z,5.57
2019-03-09T07:28:00.995Z,5.66
2019-03-09T07:30:29.562Z,5.57
2019-03-09T07:32:58.230Z,5.65
2019-03-09T07:35:26.829Z,5.54
2019-03-09T07:37:55.323Z,5.70
2019-03-09T07:40:23.854Z,5.70
2019-03-09T07:42:52.425Z,5.77
2019-03-09T07:45:21.090Z,5.85
2019-03-09T07:47:49.532Z,5.83
2019-03-09T07:50:18.480Z,5.87
2019-03-09T07:52:47.028Z,6.09
2019-03-09T07:55:19.968Z,6.15
2019-03-09T07:57:48.530Z,6.23
2019-03-09T08:00:23.022Z,6.19
2019-03-09T08:02:51.528Z,6.27
2019-03-09T08:05:20.008Z,6.20
2019-03-09T08:07:48.602Z,6.25
2019-03-09T08:10:30.951Z,6.25
2019-03-09T08:12:59.415Z,6.30
2019-03-09T08:15:27.987Z,6.56
2019-03-09T08:17:56.425Z,6.60
2019-03-09T08:20:25.006Z,6.86
2019-03-09T08:22:53.554Z,6.95
2019-03-09T08:25:24.609Z,6.97
2019-03-09T08:27:53.107Z,7.02
2019-03-09T08:30:28.820Z,6.97
2019-03-09T08:32:57.340Z,7.09
2019-03-09T08:35:25.823Z,7.14
2019-03-09T08:37:54.438Z,6.97
2019-03-09T08:40:23.252Z,7.05
2019-03-09T08:42:51.724Z,7.12
2019-03-09T08:45:21.403Z,7.20
2019-03-09T08:47:52.348Z,7.28
2019-03-09T08:50:23.583Z,7.56
2019-03-09T08:52:52.329Z,7.38
2019-03-09T08:55:20.999Z,7.52
2019-03-09T08:57:49.577Z,8.06
2019-03-09T09:00:24.244Z,8.22
2019-03-09T09:02:52.760Z,8.22
2019-03-09T09:05:21.259Z,8.64
2019-03-09T09:07:49.710Z,9.39
2019-03-09T09:10:18.211Z,10.32
2019-03-09T09:12:46.689Z,11.24
2019-03-09T09:15:16.471Z,11.84
2019-03-09T09:17:45.027Z,11.76
2019-03-09T09:20:16.381Z,11.49
2019-03-09T09:22:44.969Z,11.99
2019-03-09T09:25:14.644Z,11.79
2019-03-09T09:27:43.149Z,11.41
2019-03-09T09:30:20.478Z,11.82
2019-03-09T09:32:48.900Z,11.47
2019-03-09T09:35:18.086Z,10.69
2019-03-09T09:37:46.743Z,10.35
2019-03-09T09:40:20.099Z,9.97
2019-03-09T09:42:48.625Z,9.76
2019-03-09T09:45:17.221Z,9.89
2019-03-09T09:47:45.864Z,10.24
2019-03-09T09:50:16.832Z,9.91
2019-03-09T09:52:45.431Z,10.20
2019-03-09T09:55:18.555Z,10.18
2019-03-09T09:57:47.133Z,10.12
2019-03-09T10:00:24.306Z,9.98
2019-03-09T10:02:52.806Z,9.92
2019-03-09T10:05:21.925Z,9.96
2019-03-09T10:07:50.520Z,9.74
2019-03-09T10:10:25.038Z,9.75
2019-03-09T10:12:55.749Z,9.55
2019-03-09T10:15:28.792Z,9.50
2019-03-09T10:17:57.344Z,9.48
2019-03-09T10:20:25.890Z,9.46
2019-03-09T10:23:03.446Z,9.51
2019-03-09T10:25:24.710Z,9.50
2019-03-09T10:27:53.131Z,9.28
2019-03-09T10:30:23.982Z,9.35
2019-03-09T10:32:52.737Z,9.23
2019-03-09T10:35:21.327Z,9.30
2019-03-09T10:37:50.321Z,9.46
2019-03-09T10:40:19.392Z,9.50
2019-03-09T10:42:47.896Z,9.28
2019-03-09T10:45:20.193Z,9.32
2019-03-09T10:47:48.949Z,9.30
2019-03-09T10:50:18.155Z,9.12
2019-03-09T10:52:46.639Z,9.23
2019-03-09T10:55:18.130Z,9.12
2019-03-09T10:57:46.774Z,9.05
2019-03-09T11:00:20.637Z,9.08
2019-03-09T11:02:49.179Z,8.92
2019-03-09T11:05:17.594Z,9.12
2019-03-09T11:07:46.194Z,8.98
2019-03-09T11:10:14.975Z,9.04
2019-03-09T11:12:43.638Z,9.05
2019-03-09T11:15:12.250Z,9.10
2019-03-09T11:17:40.811Z,8.87
2019-03-09T11:20:14.481Z,8.93
2019-03-09T11:22:43.042Z,8.91
2019-03-09T11:25:12.089Z,8.87
2019-03-09T11:27:40.506Z,8.98
2019-03-09T11:30:17.615Z,9.09
2019-03-09T11:32:46.201Z,9.06
2019-03-09T11:35:14.859Z,8.92
2019-03-09T11:37:43.594Z,8.85
2019-03-09T11:40:12.148Z,8.76
2019-03-09T11:42:40.643Z,8.74
2019-03-09T11:45:14.742Z,8.77
2019-03-09T11:47:43.302Z,8.80
2019-03-09T11:50:13.921Z,8.68
2019-03-09T11:52:42.429Z,8.80
2019-03-09T11:55:12.915Z,8.77
2019-03-09T11:57:41.437Z,8.89
2019-03-09T12:00:12.938Z,8.88
2019-03-09T12:02:41.467Z,8.84
2019-03-09T12:05:10.338Z,8.75
2019-03-09T12:07:38.902Z,8.47
2019-03-09T12:10:09.851Z,8.61
2019-03-09T12:12:38.421Z,8.62
2019-03-09T12:15:12.584Z,8.58
2019-03-09T12:17:41.127Z,8.72
2019-03-09T12:20:11.079Z,8.64
2019-03-09T12:22:39.703Z,8.68
2019-03-09T12:25:11.207Z,8.68
2019-03-09T12:27:39.736Z,8.63
2019-03-09T12:30:11.232Z,8.73
2019-03-09T12:32:40.728Z,8.72
2019-03-09T12:35:09.745Z,8.69
2019-03-09T12:37:38.292Z,8.87
2019-03-09T12:40:12.199Z,8.75
2019-03-09T12:42:40.804Z,8.76
2019-03-09T12:45:10.894Z,8.85
2019-03-09T12:47:39.416Z,8.91
2019-03-09T12:50:13.621Z,8.95
2019-03-09T12:52:42.145Z,8.99
2019-03-09T12:55:10.723Z,8.87
2019-03-09T12:57:39.250Z,8.92
2019-03-09T13:00:13.523Z,8.82
2019-03-09T13:02:41.946Z,8.82
2019-03-09T13:05:10.487Z,8.89
2019-03-09T13:07:39.075Z,8.97
2019-03-09T13:10:08.950Z,9.00
2019-03-09T13:12:37.562Z,9.03
2019-03-09T13:15:07.784Z,9.04
2019-03-09T13:17:36.382Z,9.06
2019-03-09T13:20:06.797Z,9.20
2019-03-09T13:22:35.307Z,9.12
2019-03-09T13:25:04.821Z,9.01
2019-03-09T13:27:33.360Z,9.08
2019-03-09T13:30:01.937Z,9.15
2019-03-09T13:32:33.481Z,9.15
2019-03-09T13:35:01.558Z,9.17
2019-03-09T13:37:30.036Z,9.20
2019-03-09T13:39:58.523Z,9.22
2019-03-09T13:42:27.024Z,9.12
2019-03-09T13:44:55.481Z,9.10
2019-03-09T13:47:24.008Z,9.16
2019-03-09T13:49:52.632Z,9.22
2019-03-09T13:52:21.083Z,9.26
2019-03-09T13:54:49.594Z,9.38
2019-03-09T13:57:18.087Z,9.48
2019-03-09T13:59:46.515Z,9.55
2019-03-09T14:02:14.986Z,9.54
2019-03-09T14:04:43.448Z,9.58
2019-03-09T14:07:11.866Z,9.55
2019-03-09T14:09:40.296Z,9.53
2019-03-09T14:12:08.812Z,9.56
2019-03-09T14:14:37.234Z,9.61
2019-03-09T14:17:05.694Z,9.46
2019-03-09T14:19:34.125Z,9.48
2019-03-09T14:22:02.654Z,9.52
2019-03-09T14:24:31.120Z,9.45
2019-03-09T14:26:59.653Z,9.37
2019-03-09T14:29:28.144Z,9.38
2019-03-09T14:31:56.686Z,9.41
2019-03-09T14:34:25.227Z,9.31
2019-03-09T14:36:53.670Z,9.38
2019-03-09T14:39:22.165Z,9.31
2019-03-09T14:41:50.897Z,9.19
2019-03-09T14:44:19.319Z,9.04
2019-03-09T14:46:47.747Z,8.89
2019-03-09T14:49:16.285Z,8.88
2019-03-09T14:51:44.834Z,8.80
2019-03-09T14:54:13.262Z,8.80
2019-03-09T14:56:41.741Z,8.75
2019-03-09T14:59:10.187Z,8.69
2019-03-09T15:01:38.655Z,8.77
2019-03-09T15:04:07.147Z,8.74
2019-03-09T15:06:35.660Z,8.59
2019-03-09T15:09:05.015Z,8.62
2019-03-09T15:11:33.536Z,8.60
2019-03-09T15:14:02.408Z,8.53
2019-03-09T15:16:30.900Z,8.63
2019-03-09T15:18:59.339Z,8.60
2019-03-09T15:21:28.098Z,8.51
2019-03-09T15:23:56.681Z,8.59
2019-03-09T15:26:25.180Z,8.50
2019-03-09T15:28:53.773Z,8.53
2019-03-09T15:31:22.256Z,8.49
2019-03-09T15:33:50.931Z,8.53
2019-03-09T15:36:19.402Z,8.46
2019-03-09T15:38:47.843Z,8.47
2019-03-09T15:41:16.388Z,8.45
2019-03-09T15:43:44.887Z,8.39
2019-03-09T15:46:13.299Z,8.41
2019-03-09T15:48:41.864Z,8.42
2019-03-09T15:51:10.271Z,8.52
2019-03-09T15:53:38.707Z,8.50
2019-03-09T15:56:07.239Z,8.55
2019-03-09T15:58:37.206Z,8.48
2019-03-09T16:01:05.902Z,8.49
2019-03-09T16:03:34.447Z,8.62
2019-03-09T16:06:02.864Z,8.57
2019-03-09T16:08:31.318Z,8.52
2019-03-09T16:10:59.939Z,8.66
2019-03-09T16:13:28.405Z,8.58
2019-03-09T16:15:56.902Z,8.68
2019-03-09T16:18:25.385Z,8.81
2019-03-09T16:20:53.872Z,8.75
2019-03-09T16:23:22.408Z,8.72
2019-03-09T16:25:50.993Z,8.78
2019-03-09T16:28:19.496Z,8.96
2019-03-09T16:30:48.021Z,8.97
2019-03-09T16:33:16.553Z,8.86
2019-03-09T16:35:44.997Z,8.91
2019-03-09T16:38:13.448Z,8.84
2019-03-09T16:40:41.967Z,8.75
2019-03-09T16:43:10.419Z,8.74
2019-03-09T16:45:38.953Z,8.77
2019-03-09T16:48:07.457Z,8.80
2019-03-09T16:50:35.922Z,8.92
2019-03-09T16:53:04.412Z,8.92
2019-03-09T16:55:32.914Z,8.87
2019-03-09T16:58:01.444Z,8.77
2019-03-09T17:00:29.975Z,8.69
2019-03-09T17:02:58.454Z,8.78
2019-03-09T17:05:26.944Z,8.61
2019-03-09T17:07:55.474Z,8.60
2019-03-09T17:10:23.973Z,8.58
2019-03-09T17:12:52.552Z,8.55
2019-03-09T17:15:25.501Z,8.57
2019-03-09T17:17:54.087Z,8.64
2019-03-09T17:20:22.611Z,8.58
2019-03-09T17:22:51.089Z,8.44
2019-03-09T17:25:19.554Z,8.49
2019-03-09T17:27:47.981Z,8.40
2019-03-09T17:30:18.623Z,8.43
2019-03-09T17:32:47.161Z,8.26
2019-03-09T17:35:15.753Z,8.27
2019-03-09T17:37:44.265Z,8.27
2019-03-09T17:40:14.798Z,8.27
2019-03-09T17:42:43.292Z,8.32
2019-03-09T17:45:14.367Z,8.25
2019-03-09T17:47:42.923Z,8.13
2019-03-09T17:50:13.211Z,8.23
2019-03-09T17:52:41.635Z,8.16
2019-03-09T17:55:11.557Z,8.14
2019-03-09T17:57:40.059Z,8.27
2019-03-09T18:00:26.784Z,8.25
2019-03-09T18:02:55.398Z,8.21
2019-03-09T18:05:25.610Z,8.13
2019-03-09T18:07:54.185Z,8.15
2019-03-09T18:10:31.610Z,8.18
2019-03-09T18:13:00.031Z,8.22
2019-03-09T18:15:28.653Z,8.13
2019-03-09T18:17:57.107Z,8.12
2019-03-09T18:20:25.608Z,8.11
2019-03-09T18:22:54.203Z,8.15
2019-03-09T18:25:22.874Z,8.10
2019-03-09T18:27:51.321Z,8.08
2019-03-09T18:30:19.910Z,8.15
2019-03-09T18:32:49.390Z,8.05
2019-03-09T18:35:17.843Z,8.03
2019-03-09T18:37:46.276Z,7.87
2019-03-09T18:40:16.250Z,7.85
2019-03-09T18:42:45.018Z,7.91
2019-03-09T18:45:22.448Z,7.75
2019-03-09T18:47:51.291Z,7.75
2019-03-09T18:50:19.854Z,7.78
2019-03-09T18:52:48.431Z,7.78
2019-03-09T18:55:16.952Z,7.67
2019-03-09T18:57:45.522Z,7.66
2019-03-09T19:00:21.290Z,7.68
2019-03-09T19:02:50.114Z,7.69
2019-03-09T19:05:18.664Z,7.63
2019-03-09T19:07:47.281Z,7.66
2019-03-09T19:10:17.420Z,7.81
2019-03-09T19:12:45.928Z,7.80
2019-03-09T19:15:16.354Z,7.80
2019-03-09T19:17:44.929Z,7.66
2019-03-09T19:20:17.553Z,7.69
2019-03-09T19:22:46.092Z,7.75
2019-03-09T19:25:15.679Z,7.68
2019-03-09T19:27:44.176Z,7.81
2019-03-09T19:30:20.787Z,7.76
2019-03-09T19:32:59.632Z,7.63
2019-03-09T19:35:19.732Z,7.77
2019-03-09T19:37:48.254Z,7.69
2019-03-09T19:40:20.836Z,7.70
2019-03-09T19:42:49.409Z,7.80
2019-03-09T19:45:21.897Z,7.62
2019-03-09T19:47:50.505Z,7.80
2019-03-09T19:50:24.300Z,7.67
2019-03-09T19:52:52.875Z,7.70
2019-03-09T19:55:21.475Z,7.72
2019-03-09T19:57:50.257Z,7.88
2019-03-09T20:00:20.145Z,7.95
2019-03-09T20:02:48.631Z,7.95
2019-03-09T20:05:17.585Z,7.81
2019-03-09T20:07:46.147Z,7.89
2019-03-09T20:10:19.250Z,7.84
2019-03-09T20:12:47.776Z,7.92
2019-03-09T20:15:17.283Z,7.89
2019-03-09T20:17:46.061Z,7.80
2019-03-09T20:20:18.241Z,7.81
2019-03-09T20:22:46.815Z,7.85
2019-03-09T20:25:15.700Z,7.86
2019-03-09T20:27:44.257Z,7.80
2019-03-09T20:30:20.552Z,7.80
2019-03-09T20:32:49.165Z,7.75
2019-03-09T20:35:17.669Z,7.82
2019-03-09T20:37:46.177Z,7.79
2019-03-09T20:40:38.277Z,7.89
2019-03-09T20:43:06.776Z,7.79
2019-03-09T20:45:35.248Z,7.82
2019-03-09T20:48:03.706Z,7.90
2019-03-09T20:50:32.368Z,7.89
2019-03-09T20:53:02.095Z,7.89
2019-03-09T20:55:30.450Z,7.99
2019-03-09T20:57:58.946Z,7.89
2019-03-09T21:00:27.545Z,7.87
2019-03-09T21:02:56.077Z,7.87
2019-03-09T21:05:24.528Z,7.90
2019-03-09T21:07:52.958Z,7.96
2019-03-09T21:10:21.838Z,8.05
2019-03-09T21:13:08.068Z,8.16
2019-03-09T21:15:36.569Z,8.22
2019-03-09T21:18:05.056Z,8.34
2019-03-09T21:20:33.649Z,8.18
2019-03-09T21:23:02.231Z,8.21
2019-03-09T21:25:30.710Z,8.17
2019-03-09T21:27:59.166Z,8.32
2019-03-09T21:30:27.868Z,8.33
2019-03-09T21:32:56.441Z,8.38
2019-03-09T21:35:25.859Z,8.35
2019-03-09T21:37:54.476Z,8.43
2019-03-09T21:40:22.938Z,8.27
2019-03-09T21:42:51.437Z,8.37
2019-03-09T21:45:20.095Z,8.35
2019-03-09T21:47:48.625Z,8.27
2019-03-09T21:50:18.013Z,8.28
2019-03-09T21:52:46.535Z,8.17
2019-03-09T21:55:16.127Z,8.27
2019-03-09T21:57:47.836Z,8.33
2019-03-09T22:00:21.054Z,8.29
2019-03-09T22:02:50.500Z,8.27
2019-03-09T22:05:19.302Z,8.32
2019-03-09T22:07:47.743Z,8.32
2019-03-09T22:10:16.288Z,8.38
2019-03-09T22:12:44.801Z,8.26
2019-03-09T22:15:14.845Z,8.31
2019-03-09T22:17:43.361Z,8.48
2019-03-09T22:20:16.335Z,8.44
2019-03-09T22:22:45.045Z,8.52
2019-03-09T22:25:14.633Z,8.47
2019-03-09T22:27:43.176Z,8.49
2019-03-09T22:30:18.860Z,8.38
2019-03-09T22:32:47.418Z,8.37
2019-03-09T22:35:16.056Z,8.44
2019-03-09T22:37:44.466Z,8.40
2019-03-09T22:40:16.992Z,8.49
2019-03-09T22:42:45.615Z,8.38
2019-03-09T22:45:15.234Z,8.53
2019-03-09T22:47:43.836Z,8.48
2019-03-09T22:50:17.509Z,8.51
2019-03-09T22:52:46.102Z,8.57
2019-03-09T22:55:14.688Z,8.61
2019-03-09T22:57:44.401Z,8.67
2019-03-09T23:00:16.199Z,8.58
2019-03-09T23:02:45.099Z,8.64
2019-03-09T23:05:13.912Z,8.58
2019-03-09T23:07:42.574Z,8.63
2019-03-09T23:10:13.688Z,8.66
2019-03-09T23:12:42.131Z,8.52
2019-03-09T23:15:13.003Z,8.44
2019-03-09T23:17:41.579Z,8.41
2019-03-09T23:20:12.018Z,8.19
2019-03-09T23:22:40.574Z,8.35
2019-03-09T23:25:09.845Z,8.39
2019-03-09T23:27:38.377Z,8.34
2019-03-09T23:30:10.312Z,8.47
2019-03-09T23:32:38.833Z,8.47
2019-03-09T23:35:07.741Z,8.45
2019-03-09T23:37:36.393Z,8.52
2019-03-09T23:40:08.398Z,8.41
2019-03-09T23:42:36.898Z,8.29
2019-03-09T23:45:08.406Z,8.39
2019-03-09T23:47:37.043Z,8.40
2019-03-09T23:50:08.783Z,8.47
2019-03-09T23:52:37.205Z,8.44
2019-03-09T23:55:06.806Z,8.41
2019-03-09T23:57:37.111Z,8.39
